sensor_id;sensor_type;location;lat;lon;timestamp;P1;durP1;ratioP1;P2;durP2;ratioP2
62535;SDS011;63050;47.514;18.920;2022-10-16T00:03:34;8.30;;;5.40;;
62535;SDS011;63050;47.514;18.920;2022-10-16T00:08:35;12.00;;;6.80;;
62535;SDS011;63050;47.514;18.920;2022-10-16T00:13:37;8.10;;;5.60;;
62535;SDS011;63050;47.514;18.920;2022-10-16T00:18:40;7.20;;;5.70;;
62535;SDS011;63050;47.514;18.920;2022-10-16T00:23:41;10.90;;;6.00;;
62535;SDS011;63050;47.514;18.920;2022-10-16T00:28:44;9.20;;;5.50;;
62535;SDS011;63050;47.514;18.920;2022-10-16T00:33:46;8.60;;;5.60;;
62535;SDS011;63050;47.514;18.920;2022-10-16T00:38:49;8.30;;;5.70;;
62535;SDS011;63050;47.514;18.920;2022-10-16T00:43:54;5.70;;;5.10;;
62535;SDS011;63050;47.514;18.920;2022-10-16T00:54:15;7.70;;;5.30;;
62535;SDS011;63050;47.514;18.920;2022-10-16T01:04:49;9.10;;;5.00;;
62535;SDS011;63050;47.514;18.920;2022-10-16T01:15:21;7.10;;;5.60;;
62535;SDS011;63050;47.514;18.920;2022-10-16T01:20:29;6.40;;;4.90;;
62535;SDS011;63050;47.514;18.920;2022-10-16T01:31:08;7.40;;;5.30;;
62535;SDS011;63050;47.514;18.920;2022-10-16T01:36:16;7.00;;;5.10;;
62535;SDS011;63050;47.514;18.920;2022-10-16T01:41:21;6.00;;;4.90;;
62535;SDS011;63050;47.514;18.920;2022-10-16T01:46:25;8.00;;;5.60;;
62535;SDS011;63050;47.514;18.920;2022-10-16T01:51:26;6.10;;;5.10;;
62535;SDS011;63050;47.514;18.920;2022-10-16T01:56:28;8.30;;;5.40;;
62535;SDS011;63050;47.514;18.920;2022-10-16T02:01:30;6.00;;;4.90;;
62535;SDS011;63050;47.514;18.920;2022-10-16T02:06:34;7.00;;;5.10;;
62535;SDS011;63050;47.514;18.920;2022-10-16T02:11:36;7.60;;;5.20;;
62535;SDS011;63050;47.514;18.920;2022-10-16T02:16:41;8.00;;;4.80;;
62535;SDS011;63050;47.514;18.920;2022-10-16T02:21:56;7.60;;;5.30;;
62535;SDS011;63050;47.514;18.920;2022-10-16T02:27:01;7.90;;;5.00;;
62535;SDS011;63050;47.514;18.920;2022-10-16T02:32:14;7.60;;;4.90;;
62535;SDS011;63050;47.514;18.920;2022-10-16T02:37:17;7.10;;;5.30;;
62535;SDS011;63050;47.514;18.920;2022-10-16T02:42:18;8.40;;;5.60;;
62535;SDS011;63050;47.514;18.920;2022-10-16T02:47:19;7.60;;;5.20;;
62535;SDS011;63050;47.514;18.920;2022-10-16T02:52:20;6.40;;;5.30;;
62535;SDS011;63050;47.514;18.920;2022-10-16T02:57:21;6.70;;;5.30;;
62535;SDS011;63050;47.514;18.920;2022-10-16T03:02:21;8.40;;;6.20;;
62535;SDS011;63050;47.514;18.920;2022-10-16T03:07:22;7.60;;;5.40;;
62535;SDS011;63050;47.514;18.920;2022-10-16T03:12:23;5.60;;;4.10;;
62535;SDS011;63050;47.514;18.920;2022-10-16T03:17:24;8.70;;;5.10;;
62535;SDS011;63050;47.514;18.920;2022-10-16T03:22:25;5.50;;;5.00;;
62535;SDS011;63050;47.514;18.920;2022-10-16T03:27:26;7.40;;;5.30;;
62535;SDS011;63050;47.514;18.920;2022-10-16T03:32:27;7.90;;;6.30;;
62535;SDS011;63050;47.514;18.920;2022-10-16T03:37:28;8.20;;;5.90;;
62535;SDS011;63050;47.514;18.920;2022-10-16T03:42:29;8.80;;;7.10;;
62535;SDS011;63050;47.514;18.920;2022-10-16T03:47:30;9.90;;;7.00;;
62535;SDS011;63050;47.514;18.920;2022-10-16T03:52:33;9.50;;;7.30;;
62535;SDS011;63050;47.514;18.920;2022-10-16T03:57:34;10.90;;;5.90;;
62535;SDS011;63050;47.514;18.920;2022-10-16T04:02:34;9.20;;;4.80;;
62535;SDS011;63050;47.514;18.920;2022-10-16T04:07:35;5.40;;;4.50;;
62535;SDS011;63050;47.514;18.920;2022-10-16T04:12:36;7.60;;;5.30;;
62535;SDS011;63050;47.514;18.920;2022-10-16T04:17:37;6.20;;;4.70;;
62535;SDS011;63050;47.514;18.920;2022-10-16T04:22:37;8.00;;;4.20;;
62535;SDS011;63050;47.514;18.920;2022-10-16T04:27:39;6.50;;;5.20;;
62535;SDS011;63050;47.514;18.920;2022-10-16T04:32:40;8.30;;;4.10;;
62535;SDS011;63050;47.514;18.920;2022-10-16T04:37:40;9.50;;;3.90;;
62535;SDS011;63050;47.514;18.920;2022-10-16T04:42:41;7.30;;;4.90;;
62535;SDS011;63050;47.514;18.920;2022-10-16T04:47:42;5.60;;;5.00;;
62535;SDS011;63050;47.514;18.920;2022-10-16T04:52:43;8.30;;;5.30;;
62535;SDS011;63050;47.514;18.920;2022-10-16T04:57:44;5.90;;;4.30;;
62535;SDS011;63050;47.514;18.920;2022-10-16T05:02:45;6.90;;;4.60;;
62535;SDS011;63050;47.514;18.920;2022-10-16T05:07:46;10.90;;;5.40;;
62535;SDS011;63050;47.514;18.920;2022-10-16T05:12:48;5.60;;;5.00;;
62535;SDS011;63050;47.514;18.920;2022-10-16T05:17:52;4.80;;;3.50;;
62535;SDS011;63050;47.514;18.920;2022-10-16T05:22:54;7.50;;;3.70;;
62535;SDS011;63050;47.514;18.920;2022-10-16T05:27:55;8.10;;;4.70;;
62535;SDS011;63050;47.514;18.920;2022-10-16T05:32:56;5.00;;;4.40;;
62535;SDS011;63050;47.514;18.920;2022-10-16T05:37:56;8.00;;;4.50;;
62535;SDS011;63050;47.514;18.920;2022-10-16T05:42:57;8.20;;;5.20;;
62535;SDS011;63050;47.514;18.920;2022-10-16T05:47:58;7.50;;;4.60;;
62535;SDS011;63050;47.514;18.920;2022-10-16T05:52:58;9.40;;;5.70;;
62535;SDS011;63050;47.514;18.920;2022-10-16T05:57:59;8.00;;;5.20;;
62535;SDS011;63050;47.514;18.920;2022-10-16T06:03:00;6.50;;;4.40;;
62535;SDS011;63050;47.514;18.920;2022-10-16T06:08:01;6.30;;;5.30;;
62535;SDS011;63050;47.514;18.920;2022-10-16T06:13:01;8.10;;;5.10;;
62535;SDS011;63050;47.514;18.920;2022-10-16T06:18:04;7.40;;;5.80;;
62535;SDS011;63050;47.514;18.920;2022-10-16T06:23:05;8.20;;;6.50;;
62535;SDS011;63050;47.514;18.920;2022-10-16T06:28:06;8.50;;;6.80;;
62535;SDS011;63050;47.514;18.920;2022-10-16T06:33:08;7.50;;;6.60;;
62535;SDS011;63050;47.514;18.920;2022-10-16T06:38:09;11.00;;;6.80;;
62535;SDS011;63050;47.514;18.920;2022-10-16T06:43:10;12.30;;;6.90;;
62535;SDS011;63050;47.514;18.920;2022-10-16T06:48:10;9.50;;;6.20;;
62535;SDS011;63050;47.514;18.920;2022-10-16T06:53:11;7.60;;;6.20;;
62535;SDS011;63050;47.514;18.920;2022-10-16T06:58:12;11.40;;;6.80;;
62535;SDS011;63050;47.514;18.920;2022-10-16T07:03:13;9.70;;;7.00;;
62535;SDS011;63050;47.514;18.920;2022-10-16T07:08:14;9.50;;;6.60;;
62535;SDS011;63050;47.514;18.920;2022-10-16T07:13:14;12.50;;;9.00;;
62535;SDS011;63050;47.514;18.920;2022-10-16T07:18:15;11.50;;;8.70;;
62535;SDS011;63050;47.514;18.920;2022-10-16T07:23:16;11.90;;;7.00;;
62535;SDS011;63050;47.514;18.920;2022-10-16T07:28:17;11.20;;;7.20;;
62535;SDS011;63050;47.514;18.920;2022-10-16T07:33:18;13.00;;;6.70;;
62535;SDS011;63050;47.514;18.920;2022-10-16T07:38:20;12.20;;;7.80;;
62535;SDS011;63050;47.514;18.920;2022-10-16T07:43:22;8.00;;;6.60;;
62535;SDS011;63050;47.514;18.920;2022-10-16T07:48:23;9.80;;;6.70;;
62535;SDS011;63050;47.514;18.920;2022-10-16T07:53:24;9.20;;;6.90;;
62535;SDS011;63050;47.514;18.920;2022-10-16T07:58:29;10.30;;;6.60;;
62535;SDS011;63050;47.514;18.920;2022-10-16T08:03:30;9.10;;;6.80;;
62535;SDS011;63050;47.514;18.920;2022-10-16T08:08:31;8.70;;;6.70;;
62535;SDS011;63050;47.514;18.920;2022-10-16T08:13:31;8.30;;;6.80;;
62535;SDS011;63050;47.514;18.920;2022-10-16T08:18:32;9.00;;;6.70;;
62535;SDS011;63050;47.514;18.920;2022-10-16T08:23:36;9.90;;;6.70;;
62535;SDS011;63050;47.514;18.920;2022-10-16T08:28:37;10.20;;;6.70;;
62535;SDS011;63050;47.514;18.920;2022-10-16T08:33:39;8.50;;;6.60;;
62535;SDS011;63050;47.514;18.920;2022-10-16T08:38:41;11.10;;;6.90;;
62535;SDS011;63050;47.514;18.920;2022-10-16T08:44:04;7.60;;;6.30;;
62535;SDS011;63050;47.514;18.920;2022-10-16T08:49:43;10.90;;;6.70;;
62535;SDS011;63050;47.514;18.920;2022-10-16T08:54:53;10.20;;;6.60;;
62535;SDS011;63050;47.514;18.920;2022-10-16T08:59:57;9.90;;;6.60;;
62535;SDS011;63050;47.514;18.920;2022-10-16T09:10:29;8.90;;;5.70;;
62535;SDS011;63050;47.514;18.920;2022-10-16T09:15:43;10.30;;;5.40;;
62535;SDS011;63050;47.514;18.920;2022-10-16T09:20:51;8.50;;;5.90;;
62535;SDS011;63050;47.514;18.920;2022-10-16T09:26:02;10.70;;;6.00;;
62535;SDS011;63050;47.514;18.920;2022-10-16T09:31:04;8.40;;;6.10;;
62535;SDS011;63050;47.514;18.920;2022-10-16T09:36:05;9.20;;;6.30;;
62535;SDS011;63050;47.514;18.920;2022-10-16T09:41:17;9.80;;;6.00;;
62535;SDS011;63050;47.514;18.920;2022-10-16T09:46:27;8.60;;;5.40;;
62535;SDS011;63050;47.514;18.920;2022-10-16T09:51:36;8.60;;;6.00;;
62535;SDS011;63050;47.514;18.920;2022-10-16T09:56:37;10.30;;;5.40;;
62535;SDS011;63050;47.514;18.920;2022-10-16T10:06:46;6.50;;;5.30;;
62535;SDS011;63050;47.514;18.920;2022-10-16T10:11:58;9.10;;;5.70;;
62535;SDS011;63050;47.514;18.920;2022-10-16T10:27:29;7.10;;;5.10;;
62535;SDS011;63050;47.514;18.920;2022-10-16T10:33:08;6.80;;;4.60;;
62535;SDS011;63050;47.514;18.920;2022-10-16T10:48:52;6.00;;;4.80;;
62535;SDS011;63050;47.514;18.920;2022-10-16T11:10:26;6.40;;;4.40;;
62535;SDS011;63050;47.514;18.920;2022-10-16T11:15:31;5.60;;;4.10;;
62535;SDS011;63050;47.514;18.920;2022-10-16T11:20:34;6.10;;;4.10;;
62535;SDS011;63050;47.514;18.920;2022-10-16T11:25:40;5.50;;;3.70;;
62535;SDS011;63050;47.514;18.920;2022-10-16T11:41:36;4.80;;;3.20;;
62535;SDS011;63050;47.514;18.920;2022-10-16T11:46:46;5.80;;;3.90;;
62535;SDS011;63050;47.514;18.920;2022-10-16T11:51:55;7.90;;;3.90;;
62535;SDS011;63050;47.514;18.920;2022-10-16T11:57:03;7.40;;;3.50;;
62535;SDS011;63050;47.514;18.920;2022-10-16T12:02:22;10.60;;;4.00;;
62535;SDS011;63050;47.514;18.920;2022-10-16T12:07:32;4.80;;;3.60;;
62535;SDS011;63050;47.514;18.920;2022-10-16T12:12:38;6.00;;;3.70;;
62535;SDS011;63050;47.514;18.920;2022-10-16T12:17:39;8.00;;;3.60;;
62535;SDS011;63050;47.514;18.920;2022-10-16T12:22:50;9.10;;;4.00;;
62535;SDS011;63050;47.514;18.920;2022-10-16T12:28:34;4.90;;;3.10;;
62535;SDS011;63050;47.514;18.920;2022-10-16T12:33:19;7.80;;;3.90;;
62535;SDS011;63050;47.514;18.920;2022-10-16T12:38:35;5.10;;;3.20;;
62535;SDS011;63050;47.514;18.920;2022-10-16T12:43:45;8.10;;;3.80;;
62535;SDS011;63050;47.514;18.920;2022-10-16T12:48:46;6.20;;;3.60;;
62535;SDS011;63050;47.514;18.920;2022-10-16T12:54:02;5.30;;;4.00;;
62535;SDS011;63050;47.514;18.920;2022-10-16T13:09:45;6.80;;;3.60;;
62535;SDS011;63050;47.514;18.920;2022-10-16T13:15:06;9.30;;;3.90;;
62535;SDS011;63050;47.514;18.920;2022-10-16T13:20:29;5.10;;;3.80;;
62535;SDS011;63050;47.514;18.920;2022-10-16T13:25:41;7.70;;;3.10;;
62535;SDS011;63050;47.514;18.920;2022-10-16T13:30:53;5.20;;;3.20;;
62535;SDS011;63050;47.514;18.920;2022-10-16T13:35:55;5.90;;;3.70;;
62535;SDS011;63050;47.514;18.920;2022-10-16T13:40:57;7.40;;;3.50;;
62535;SDS011;63050;47.514;18.920;2022-10-16T13:46:25;6.20;;;3.30;;
62535;SDS011;63050;47.514;18.920;2022-10-16T13:51:27;8.20;;;3.60;;
62535;SDS011;63050;47.514;18.920;2022-10-16T13:56:31;7.60;;;3.50;;
62535;SDS011;63050;47.514;18.920;2022-10-16T14:01:42;6.70;;;3.50;;
62535;SDS011;63050;47.514;18.920;2022-10-16T14:06:44;8.10;;;4.40;;
62535;SDS011;63050;47.514;18.920;2022-10-16T14:12:08;7.40;;;3.60;;
62535;SDS011;63050;47.514;18.920;2022-10-16T14:17:20;7.70;;;4.30;;
62535;SDS011;63050;47.514;18.920;2022-10-16T14:27:35;5.10;;;3.10;;
62535;SDS011;63050;47.514;18.920;2022-10-16T14:32:37;6.90;;;3.30;;
62535;SDS011;63050;47.514;18.920;2022-10-16T14:37:41;6.80;;;3.40;;
62535;SDS011;63050;47.514;18.920;2022-10-16T14:42:42;5.00;;;3.00;;
62535;SDS011;63050;47.514;18.920;2022-10-16T14:47:54;5.90;;;3.10;;
62535;SDS011;63050;47.514;18.920;2022-10-16T14:52:56;8.00;;;3.50;;
62535;SDS011;63050;47.514;18.920;2022-10-16T14:57:58;5.90;;;3.50;;
62535;SDS011;63050;47.514;18.920;2022-10-16T15:02:59;6.90;;;3.20;;
62535;SDS011;63050;47.514;18.920;2022-10-16T15:08:00;4.20;;;3.50;;
62535;SDS011;63050;47.514;18.920;2022-10-16T15:13:01;6.70;;;3.70;;
62535;SDS011;63050;47.514;18.920;2022-10-16T15:18:02;10.00;;;4.40;;
62535;SDS011;63050;47.514;18.920;2022-10-16T15:23:05;12.30;;;4.70;;
62535;SDS011;63050;47.514;18.920;2022-10-16T15:28:11;11.60;;;5.50;;
62535;SDS011;63050;47.514;18.920;2022-10-16T15:33:17;14.50;;;4.80;;
62535;SDS011;63050;47.514;18.920;2022-10-16T15:38:20;20.40;;;6.20;;
62535;SDS011;63050;47.514;18.920;2022-10-16T15:43:21;43.10;;;8.20;;
62535;SDS011;63050;47.514;18.920;2022-10-16T15:48:22;76.20;;;9.90;;
62535;SDS011;63050;47.514;18.920;2022-10-16T15:53:23;36.90;;;7.90;;
62535;SDS011;63050;47.514;18.920;2022-10-16T15:58:24;12.20;;;3.70;;
62535;SDS011;63050;47.514;18.920;2022-10-16T16:03:25;14.10;;;4.90;;
62535;SDS011;63050;47.514;18.920;2022-10-16T16:08:25;6.60;;;4.20;;
62535;SDS011;63050;47.514;18.920;2022-10-16T16:13:26;6.00;;;3.90;;
62535;SDS011;63050;47.514;18.920;2022-10-16T16:18:27;8.10;;;3.90;;
62535;SDS011;63050;47.514;18.920;2022-10-16T16:23:29;8.20;;;4.00;;
62535;SDS011;63050;47.514;18.920;2022-10-16T16:28:29;7.10;;;3.20;;
62535;SDS011;63050;47.514;18.920;2022-10-16T16:33:30;11.40;;;3.90;;
62535;SDS011;63050;47.514;18.920;2022-10-16T16:38:32;6.80;;;4.00;;
62535;SDS011;63050;47.514;18.920;2022-10-16T16:43:33;8.80;;;3.80;;
62535;SDS011;63050;47.514;18.920;2022-10-16T16:48:34;6.50;;;3.60;;
62535;SDS011;63050;47.514;18.920;2022-10-16T16:53:36;6.80;;;4.20;;
62535;SDS011;63050;47.514;18.920;2022-10-16T16:58:37;6.10;;;4.10;;
62535;SDS011;63050;47.514;18.920;2022-10-16T17:03:38;9.50;;;4.20;;
62535;SDS011;63050;47.514;18.920;2022-10-16T17:08:42;9.00;;;4.30;;
62535;SDS011;63050;47.514;18.920;2022-10-16T17:13:43;9.60;;;4.70;;
62535;SDS011;63050;47.514;18.920;2022-10-16T17:18:44;7.40;;;4.10;;
62535;SDS011;63050;47.514;18.920;2022-10-16T17:23:45;7.50;;;4.00;;
62535;SDS011;63050;47.514;18.920;2022-10-16T17:28:50;6.50;;;4.30;;
62535;SDS011;63050;47.514;18.920;2022-10-16T17:33:55;10.50;;;5.10;;
62535;SDS011;63050;47.514;18.920;2022-10-16T17:38:58;7.20;;;4.90;;
62535;SDS011;63050;47.514;18.920;2022-10-16T17:44:10;7.10;;;4.10;;
62535;SDS011;63050;47.514;18.920;2022-10-16T17:49:19;6.20;;;4.40;;
62535;SDS011;63050;47.514;18.920;2022-10-16T17:54:22;8.60;;;4.40;;
62535;SDS011;63050;47.514;18.920;2022-10-16T17:59:23;4.80;;;4.10;;
62535;SDS011;63050;47.514;18.920;2022-10-16T18:04:24;7.50;;;4.50;;
62535;SDS011;63050;47.514;18.920;2022-10-16T18:09:25;6.90;;;4.40;;
62535;SDS011;63050;47.514;18.920;2022-10-16T18:14:27;8.00;;;4.50;;
62535;SDS011;63050;47.514;18.920;2022-10-16T18:19:30;6.90;;;4.30;;
62535;SDS011;63050;47.514;18.920;2022-10-16T18:24:31;6.90;;;4.80;;
62535;SDS011;63050;47.514;18.920;2022-10-16T18:29:34;7.70;;;4.50;;
62535;SDS011;63050;47.514;18.920;2022-10-16T18:34:35;8.50;;;4.60;;
62535;SDS011;63050;47.514;18.920;2022-10-16T18:39:37;5.90;;;4.10;;
62535;SDS011;63050;47.514;18.920;2022-10-16T18:44:39;5.20;;;4.20;;
62535;SDS011;63050;47.514;18.920;2022-10-16T18:49:40;4.90;;;4.10;;
62535;SDS011;63050;47.514;18.920;2022-10-16T18:54:41;10.80;;;4.70;;
62535;SDS011;63050;47.514;18.920;2022-10-16T18:59:42;8.60;;;4.10;;
62535;SDS011;63050;47.514;18.920;2022-10-16T19:04:44;7.70;;;4.90;;
62535;SDS011;63050;47.514;18.920;2022-10-16T19:09:45;6.30;;;4.50;;
62535;SDS011;63050;47.514;18.920;2022-10-16T19:14:47;5.20;;;4.70;;
62535;SDS011;63050;47.514;18.920;2022-10-16T19:19:48;8.30;;;5.30;;
62535;SDS011;63050;47.514;18.920;2022-10-16T19:24:49;7.20;;;5.00;;
62535;SDS011;63050;47.514;18.920;2022-10-16T19:29:50;5.40;;;4.10;;
62535;SDS011;63050;47.514;18.920;2022-10-16T19:34:52;8.00;;;4.80;;
62535;SDS011;63050;47.514;18.920;2022-10-16T19:39:53;7.20;;;3.80;;
62535;SDS011;63050;47.514;18.920;2022-10-16T19:44:54;11.10;;;4.70;;
62535;SDS011;63050;47.514;18.920;2022-10-16T19:49:56;5.40;;;4.50;;
62535;SDS011;63050;47.514;18.920;2022-10-16T19:54:56;7.00;;;5.20;;
62535;SDS011;63050;47.514;18.920;2022-10-16T19:59:57;6.20;;;4.50;;
62535;SDS011;63050;47.514;18.920;2022-10-16T20:04:58;6.50;;;3.70;;
62535;SDS011;63050;47.514;18.920;2022-10-16T20:09:59;8.50;;;4.80;;
62535;SDS011;63050;47.514;18.920;2022-10-16T20:15:00;6.00;;;4.70;;
62535;SDS011;63050;47.514;18.920;2022-10-16T20:20:02;5.70;;;4.70;;
62535;SDS011;63050;47.514;18.920;2022-10-16T20:25:03;4.60;;;3.50;;
62535;SDS011;63050;47.514;18.920;2022-10-16T20:30:04;6.70;;;4.70;;
62535;SDS011;63050;47.514;18.920;2022-10-16T20:35:05;8.90;;;5.00;;
62535;SDS011;63050;47.514;18.920;2022-10-16T20:40:06;5.60;;;4.80;;
62535;SDS011;63050;47.514;18.920;2022-10-16T20:45:08;7.30;;;4.50;;
62535;SDS011;63050;47.514;18.920;2022-10-16T20:50:09;5.40;;;4.30;;
62535;SDS011;63050;47.514;18.920;2022-10-16T20:55:10;7.80;;;5.10;;
62535;SDS011;63050;47.514;18.920;2022-10-16T21:00:11;9.20;;;5.00;;
62535;SDS011;63050;47.514;18.920;2022-10-16T21:05:12;6.60;;;4.50;;
62535;SDS011;63050;47.514;18.920;2022-10-16T21:10:13;6.10;;;4.50;;
62535;SDS011;63050;47.514;18.920;2022-10-16T21:15:14;7.30;;;4.90;;
62535;SDS011;63050;47.514;18.920;2022-10-16T21:20:15;6.50;;;4.50;;
62535;SDS011;63050;47.514;18.920;2022-10-16T21:25:16;7.60;;;4.60;;
62535;SDS011;63050;47.514;18.920;2022-10-16T21:30:17;5.10;;;4.00;;
62535;SDS011;63050;47.514;18.920;2022-10-16T21:35:17;7.00;;;4.20;;
62535;SDS011;63050;47.514;18.920;2022-10-16T21:40:18;6.10;;;4.00;;
62535;SDS011;63050;47.514;18.920;2022-10-16T21:45:19;5.90;;;4.60;;
62535;SDS011;63050;47.514;18.920;2022-10-16T21:50:20;5.10;;;4.30;;
62535;SDS011;63050;47.514;18.920;2022-10-16T21:55:21;6.30;;;4.70;;
62535;SDS011;63050;47.514;18.920;2022-10-16T22:00:21;4.80;;;3.40;;
62535;SDS011;63050;47.514;18.920;2022-10-16T22:05:22;7.10;;;3.40;;
62535;SDS011;63050;47.514;18.920;2022-10-16T22:10:23;5.90;;;3.60;;
62535;SDS011;63050;47.514;18.920;2022-10-16T22:15:23;5.80;;;4.10;;
62535;SDS011;63050;47.514;18.920;2022-10-16T22:20:24;5.30;;;4.00;;
62535;SDS011;63050;47.514;18.920;2022-10-16T22:25:25;4.40;;;3.70;;
62535;SDS011;63050;47.514;18.920;2022-10-16T22:30:26;5.20;;;3.90;;
62535;SDS011;63050;47.514;18.920;2022-10-16T22:35:26;6.60;;;4.20;;
62535;SDS011;63050;47.514;18.920;2022-10-16T22:40:27;5.20;;;3.50;;
62535;SDS011;63050;47.514;18.920;2022-10-16T22:45:29;6.10;;;3.10;;
62535;SDS011;63050;47.514;18.920;2022-10-16T22:50:30;9.00;;;4.10;;
62535;SDS011;63050;47.514;18.920;2022-10-16T22:55:31;6.20;;;4.00;;
62535;SDS011;63050;47.514;18.920;2022-10-16T23:00:32;7.90;;;3.20;;
62535;SDS011;63050;47.514;18.920;2022-10-16T23:05:33;4.60;;;3.70;;
62535;SDS011;63050;47.514;18.920;2022-10-16T23:10:37;6.20;;;3.30;;
62535;SDS011;63050;47.514;18.920;2022-10-16T23:15:39;4.90;;;3.20;;
62535;SDS011;63050;47.514;18.920;2022-10-16T23:20:41;7.00;;;3.70;;
62535;SDS011;63050;47.514;18.920;2022-10-16T23:25:45;5.50;;;3.90;;
62535;SDS011;63050;47.514;18.920;2022-10-16T23:30:48;4.70;;;3.40;;
62535;SDS011;63050;47.514;18.920;2022-10-16T23:35:49;4.70;;;3.10;;
62535;SDS011;63050;47.514;18.920;2022-10-16T23:40:50;4.00;;;3.00;;
62535;SDS011;63050;47.514;18.920;2022-10-16T23:45:51;5.10;;;2.90;;
62535;SDS011;63050;47.514;18.920;2022-10-16T23:50:51;4.90;;;4.00;;
62535;SDS011;63050;47.514;18.920;2022-10-16T23:55:52;6.30;;;4.00;;
